createdAt,value
2018-02-12T00:00:53.686Z,0.60
2018-02-12T00:01:53.679Z,0.70
2018-02-12T00:02:53.672Z,0.50
2018-02-12T00:03:53.664Z,0.70
2018-02-12T00:04:53.656Z,0.70
2018-02-12T00:05:53.650Z,0.80
2018-02-12T00:06:53.642Z,0.70
2018-02-12T00:07:53.634Z,0.70
2018-02-12T00:08:53.628Z,0.70
2018-02-12T00:09:53.621Z,0.70
2018-02-12T00:10:53.613Z,0.80
2018-02-12T00:11:53.605Z,0.70
2018-02-12T00:12:53.600Z,0.60
2018-02-12T00:13:53.593Z,0.90
2018-02-12T00:14:53.585Z,0.80
2018-02-12T00:15:53.577Z,0.90
2018-02-12T00:16:53.571Z,0.90
2018-02-12T00:17:53.563Z,1.20
2018-02-12T00:18:53.595Z,1.30
2018-02-12T00:19:53.550Z,0.80
2018-02-12T00:20:53.543Z,0.90
2018-02-12T00:21:53.537Z,0.70
2018-02-12T00:22:53.527Z,1.00
2018-02-12T00:23:53.521Z,0.70
2018-02-12T00:24:53.514Z,0.80
2018-02-12T00:25:53.507Z,0.80
2018-02-12T00:26:53.499Z,1.00
2018-02-12T00:27:53.492Z,1.10
2018-02-12T00:28:53.530Z,0.90
2018-02-12T00:29:53.478Z,0.80
2018-02-12T00:30:53.470Z,1.00
2018-02-12T00:31:53.464Z,1.00
2018-02-12T00:32:53.457Z,0.90
2018-02-12T00:33:53.450Z,0.90
2018-02-12T00:34:53.442Z,1.10
2018-02-12T00:35:53.435Z,1.10
2018-02-12T00:36:53.430Z,1.20
2018-02-12T00:37:53.423Z,1.10
2018-02-12T00:38:53.416Z,1.30
2018-02-12T00:39:53.409Z,1.10
2018-02-12T00:40:53.403Z,1.10
2018-02-12T00:41:53.395Z,1.00
2018-02-12T00:42:53.387Z,1.00
2018-02-12T00:43:53.382Z,1.30
2018-02-12T00:44:53.379Z,0.90
2018-02-12T00:45:53.368Z,0.80
2018-02-12T00:46:53.360Z,1.10
2018-02-12T00:47:53.353Z,0.90
2018-02-12T00:48:53.347Z,1.10
2018-02-12T00:49:53.340Z,1.00
2018-02-12T00:50:53.333Z,1.20
2018-02-12T00:51:53.326Z,1.00
2018-02-12T00:52:53.321Z,1.00
2018-02-12T00:53:53.315Z,1.10
2018-02-12T00:54:53.306Z,1.20
2018-02-12T00:55:53.300Z,1.00
2018-02-12T00:56:53.293Z,1.00
2018-02-12T00:57:53.287Z,1.10
2018-02-12T00:58:53.280Z,1.10
2018-02-12T00:59:53.274Z,1.10
2018-02-12T01:00:53.267Z,1.00
2018-02-12T01:01:53.262Z,1.10
2018-02-12T01:02:53.255Z,1.10
2018-02-12T01:03:53.247Z,1.10
2018-02-12T01:04:53.241Z,1.00
2018-02-12T01:05:53.235Z,0.90
2018-02-12T01:06:53.227Z,1.40
2018-02-12T01:07:53.220Z,0.90
2018-02-12T01:08:53.215Z,0.80
2018-02-12T01:09:53.208Z,0.90
2018-02-12T01:10:53.200Z,1.00
2018-02-12T01:11:53.194Z,1.00
2018-02-12T01:12:53.186Z,0.90
2018-02-12T01:13:53.179Z,1.00
2018-02-12T01:14:53.173Z,1.30
2018-02-12T01:15:53.166Z,1.30
2018-02-12T01:16:53.159Z,0.90
2018-02-12T01:17:53.154Z,0.90
2018-02-12T01:18:53.147Z,1.30
2018-02-12T01:19:53.140Z,1.30
2018-02-12T01:20:53.133Z,1.50
2018-02-12T01:21:53.127Z,1.10
2018-02-12T01:22:53.120Z,1.10
2018-02-12T01:23:53.113Z,1.00
2018-02-12T01:24:53.106Z,0.90
2018-02-12T01:25:53.101Z,1.10
2018-02-12T01:26:53.093Z,0.80
2018-02-12T01:27:53.087Z,0.80
2018-02-12T01:28:53.080Z,0.90
2018-02-12T01:29:53.074Z,0.80
2018-02-12T01:30:53.066Z,0.90
2018-02-12T01:31:53.062Z,0.90
2018-02-12T01:32:53.054Z,0.70
2018-02-12T01:33:53.048Z,0.80
2018-02-12T01:34:53.040Z,0.70
2018-02-12T01:35:53.033Z,0.80
2018-02-12T01:36:53.027Z,0.90
2018-02-12T01:37:53.022Z,0.90
2018-02-12T01:38:53.014Z,0.90
2018-02-12T01:39:53.007Z,0.90
2018-02-12T01:41:53.039Z,0.90
2018-02-12T01:42:52.988Z,0.70
2018-02-12T01:43:52.980Z,0.80
2018-02-12T01:44:52.975Z,1.00
2018-02-12T01:45:52.970Z,0.90
2018-02-12T01:46:52.966Z,1.00
2018-02-12T01:47:52.955Z,1.00
2018-02-12T01:48:52.948Z,1.40
2018-02-12T01:49:52.942Z,1.00
2018-02-12T01:50:52.936Z,1.10
2018-02-12T01:51:52.928Z,0.90
2018-02-12T01:52:52.921Z,1.00
2018-02-12T01:53:52.915Z,1.00
2018-02-12T01:54:52.906Z,0.90
2018-02-12T01:55:52.900Z,1.00
2018-02-12T01:56:52.894Z,0.80
2018-02-12T01:57:52.889Z,1.10
2018-02-12T01:58:52.882Z,1.00
2018-02-12T01:59:52.875Z,1.20
2018-02-12T02:00:52.869Z,1.00
2018-02-12T02:01:52.867Z,0.70
2018-02-12T02:02:52.893Z,1.00
2018-02-12T02:03:52.849Z,0.90
2018-02-12T02:04:52.842Z,1.10
2018-02-12T02:05:52.835Z,1.30
2018-02-12T02:06:52.828Z,1.10
2018-02-12T02:07:52.821Z,1.00
2018-02-12T02:08:52.815Z,1.00
2018-02-12T02:09:52.809Z,1.10
2018-02-12T02:10:52.801Z,1.00
2018-02-12T02:11:52.794Z,0.80
2018-02-12T02:12:52.788Z,1.00
2018-02-12T02:13:52.783Z,1.20
2018-02-12T02:14:52.774Z,0.90
2018-02-12T02:15:52.768Z,1.10
2018-02-12T02:16:52.763Z,0.90
2018-02-12T02:17:52.756Z,1.00
2018-02-12T02:18:52.748Z,0.80
2018-02-12T02:19:52.742Z,0.70
2018-02-12T02:20:52.735Z,0.90
2018-02-12T02:21:52.728Z,0.70
2018-02-12T02:22:52.721Z,0.70
2018-02-12T02:23:52.715Z,0.80
2018-02-12T02:24:52.709Z,0.70
2018-02-12T02:25:52.703Z,0.70
2018-02-12T02:26:52.694Z,0.70
2018-02-12T02:27:52.687Z,0.80
2018-02-12T02:28:52.681Z,0.80
2018-02-12T02:29:52.679Z,0.80
2018-02-12T02:30:52.667Z,1.00
2018-02-12T02:31:52.660Z,1.00
2018-02-12T02:32:52.654Z,1.00
2018-02-12T02:33:52.649Z,1.20
2018-02-12T02:34:52.640Z,1.00
2018-02-12T02:35:52.633Z,1.10
2018-02-12T02:36:52.627Z,0.90
2018-02-12T02:37:52.621Z,0.90
2018-02-12T02:38:52.613Z,1.00
2018-02-12T02:39:52.606Z,1.50
2018-02-12T02:40:52.600Z,1.20
2018-02-12T02:41:52.593Z,1.10
2018-02-12T02:42:52.586Z,1.30
2018-02-12T02:43:52.578Z,1.30
2018-02-12T02:44:52.573Z,1.20
2018-02-12T02:45:52.567Z,1.20
2018-02-12T02:46:52.559Z,1.00
2018-02-12T02:47:52.553Z,1.50
2018-02-12T02:48:52.545Z,1.00
2018-02-12T02:49:52.541Z,1.00
2018-02-12T02:50:52.532Z,0.90
2018-02-12T02:51:52.525Z,0.80
2018-02-12T02:52:52.517Z,0.90
2018-02-12T02:53:52.512Z,0.80
2018-02-12T02:54:52.504Z,0.80
2018-02-12T02:55:52.504Z,1.10
2018-02-12T02:56:52.490Z,0.80
2018-02-12T02:57:52.484Z,0.80
2018-02-12T02:58:52.476Z,0.80
2018-02-12T02:59:52.470Z,0.80
2018-02-12T03:00:52.463Z,0.70
2018-02-12T03:01:52.456Z,0.80
2018-02-12T03:02:52.448Z,0.70
2018-02-12T03:03:52.441Z,1.00
2018-02-12T03:04:52.434Z,0.90
2018-02-12T03:05:52.429Z,0.70
2018-02-12T03:06:52.421Z,0.70
2018-02-12T03:07:52.414Z,0.70
2018-02-12T03:08:52.409Z,0.60
2018-02-12T03:09:52.403Z,0.60
2018-02-12T03:10:52.394Z,0.60
2018-02-12T03:11:52.388Z,0.70
2018-02-12T03:12:52.381Z,0.80
2018-02-12T03:13:52.375Z,0.70
2018-02-12T03:14:52.367Z,0.70
2018-02-12T03:15:52.360Z,1.40
2018-02-12T03:16:52.354Z,0.80
2018-02-12T03:17:52.348Z,0.90
2018-02-12T03:18:52.339Z,0.90
2018-02-12T03:19:52.333Z,0.70
2018-02-12T03:20:52.325Z,0.80
2018-02-12T03:21:52.320Z,0.80
2018-02-12T03:22:52.312Z,0.90
2018-02-12T03:23:52.304Z,0.60
2018-02-12T03:24:52.298Z,0.50
2018-02-12T03:25:52.291Z,0.80
2018-02-12T03:26:52.283Z,0.70
2018-02-12T03:27:52.276Z,0.80
2018-02-12T03:28:52.271Z,0.90
2018-02-12T03:29:52.264Z,0.60
2018-02-12T03:30:52.257Z,0.60
2018-02-12T03:31:52.249Z,0.70
2018-02-12T03:32:52.244Z,0.70
2018-02-12T03:33:52.236Z,0.60
2018-02-12T03:34:52.229Z,0.70
2018-02-12T03:35:52.222Z,0.60
2018-02-12T03:36:52.216Z,0.70
2018-02-12T03:37:52.209Z,0.70
2018-02-12T03:38:52.201Z,0.60
2018-02-12T03:39:52.194Z,0.60
2018-02-12T03:40:52.187Z,1.20
2018-02-12T03:41:52.181Z,0.80
2018-02-12T03:42:52.173Z,0.80
2018-02-12T03:43:52.166Z,0.70
2018-02-12T03:44:52.162Z,1.00
2018-02-12T03:45:52.152Z,0.70
2018-02-12T03:46:52.145Z,0.70
2018-02-12T03:47:52.138Z,0.80
2018-02-12T03:48:52.131Z,0.70
2018-02-12T03:49:52.125Z,0.70
2018-02-12T03:50:52.119Z,0.60
2018-02-12T03:51:52.109Z,0.60
2018-02-12T03:52:52.103Z,0.70
2018-02-12T03:53:52.097Z,0.60
2018-02-12T03:54:52.089Z,0.60
2018-02-12T03:55:52.083Z,0.60
2018-02-12T03:56:52.076Z,0.60
2018-02-12T03:57:52.069Z,0.60
2018-02-12T03:58:52.061Z,0.50
2018-02-12T03:59:52.054Z,0.50
2018-02-12T04:00:52.048Z,0.70
2018-02-12T04:01:52.041Z,0.50
2018-02-12T04:02:52.033Z,0.80
2018-02-12T04:03:52.025Z,0.70
2018-02-12T04:04:52.021Z,0.60
2018-02-12T04:05:52.011Z,0.70
2018-02-12T04:06:52.006Z,0.80
2018-02-12T04:07:51.998Z,0.60
2018-02-12T04:08:51.989Z,0.60
2018-02-12T04:09:51.983Z,0.60
2018-02-12T04:10:51.976Z,0.60
2018-02-12T04:11:51.968Z,0.70
2018-02-12T04:12:51.963Z,0.80
2018-02-12T04:13:51.954Z,0.70
2018-02-12T04:14:51.950Z,0.70
2018-02-12T04:15:51.939Z,0.80
2018-02-12T04:16:51.932Z,0.80
2018-02-12T04:17:51.927Z,0.90
2018-02-12T04:18:51.919Z,1.00
2018-02-12T04:19:51.913Z,1.00
2018-02-12T04:20:51.905Z,1.20
2018-02-12T04:21:51.898Z,0.90
2018-02-12T04:22:51.891Z,1.10
2018-02-12T04:23:51.884Z,1.10
2018-02-12T04:24:51.930Z,0.90
2018-02-12T04:25:51.871Z,0.90
2018-02-12T04:26:51.863Z,0.90
2018-02-12T04:27:51.856Z,1.10
2018-02-12T04:28:51.849Z,1.10
2018-02-12T04:29:51.841Z,1.60
2018-02-12T04:30:51.833Z,1.40
2018-02-12T04:31:51.830Z,1.20
2018-02-12T04:32:51.821Z,1.10
2018-02-12T04:33:51.814Z,1.60
2018-02-12T04:34:51.806Z,0.70
2018-02-12T04:35:51.799Z,0.80
2018-02-12T04:36:51.796Z,1.00
2018-02-12T04:37:51.785Z,0.90
2018-02-12T04:38:51.778Z,0.80
2018-02-12T04:39:51.770Z,0.80
2018-02-12T04:40:51.764Z,1.00
2018-02-12T04:41:51.757Z,0.80
2018-02-12T04:42:51.749Z,1.10
2018-02-12T04:43:51.742Z,0.80
2018-02-12T04:44:51.735Z,1.20
2018-02-12T04:45:51.728Z,1.40
2018-02-12T04:46:51.721Z,1.60
2018-02-12T04:47:51.716Z,1.60
2018-02-12T04:48:51.709Z,1.60
2018-02-12T04:49:51.703Z,1.60
2018-02-12T04:50:51.692Z,1.40
2018-02-12T04:51:51.687Z,1.60
2018-02-12T04:52:51.680Z,1.40
2018-02-12T04:53:51.672Z,1.30
2018-02-12T04:54:51.666Z,1.70
2018-02-12T04:55:51.658Z,1.60
2018-02-12T04:56:51.653Z,1.40
2018-02-12T04:57:51.644Z,1.30
2018-02-12T04:58:51.638Z,1.60
2018-02-12T04:59:51.631Z,1.10
2018-02-12T05:00:51.624Z,1.40
2018-02-12T05:01:51.619Z,1.30
2018-02-12T05:02:51.610Z,1.40
2018-02-12T05:03:51.602Z,1.50
2018-02-12T05:04:51.596Z,1.30
2018-02-12T05:05:51.590Z,1.30
2018-02-12T05:06:51.581Z,1.70
2018-02-12T05:07:51.574Z,1.00
2018-02-12T05:08:51.567Z,1.30
2018-02-12T05:09:51.561Z,1.00
2018-02-12T05:10:51.553Z,1.20
2018-02-12T05:11:51.549Z,0.90
2018-02-12T05:12:51.540Z,1.30
2018-02-12T05:13:51.533Z,1.20
2018-02-12T05:14:51.526Z,1.00
2018-02-12T05:15:51.520Z,1.00
2018-02-12T05:16:51.514Z,1.30
2018-02-12T05:17:51.519Z,1.40
2018-02-12T05:18:51.499Z,1.00
2018-02-12T05:19:51.492Z,1.30
2018-02-12T05:20:51.485Z,1.00
2018-02-12T05:21:51.483Z,1.70
2018-02-12T05:22:51.471Z,1.00
2018-02-12T05:23:51.463Z,1.60
2018-02-12T05:24:51.458Z,1.00
2018-02-12T05:25:51.451Z,1.30
2018-02-12T05:26:51.443Z,1.50
2018-02-12T05:27:51.436Z,1.20
2018-02-12T05:28:51.429Z,1.50
2018-02-12T05:29:51.423Z,1.70
2018-02-12T05:30:51.415Z,1.80
2018-02-12T05:31:51.407Z,1.80
2018-02-12T05:32:51.402Z,1.60
2018-02-12T05:33:51.395Z,1.60
2018-02-12T05:34:51.387Z,1.80
2018-02-12T05:35:51.380Z,1.50
2018-02-12T05:36:51.373Z,1.40
2018-02-12T05:37:51.367Z,1.70
2018-02-12T05:38:51.360Z,1.30
2018-02-12T05:39:51.353Z,1.20
2018-02-12T05:40:51.346Z,1.60
2018-02-12T05:41:51.340Z,1.20
2018-02-12T05:42:51.335Z,1.40
2018-02-12T05:43:51.326Z,1.30
2018-02-12T05:44:51.320Z,1.50
2018-02-12T05:45:51.312Z,1.40
2018-02-12T05:46:51.304Z,1.60
2018-02-12T05:47:51.298Z,1.40
2018-02-12T05:48:51.291Z,1.40
2018-02-12T05:49:51.283Z,1.40
2018-02-12T05:50:51.276Z,1.50
2018-02-12T05:51:51.269Z,1.70
2018-02-12T05:52:51.263Z,1.90
2018-02-12T05:53:51.259Z,1.60
2018-02-12T05:54:51.248Z,1.40
2018-02-12T05:55:51.242Z,1.50
2018-02-12T05:56:51.235Z,2.20
2018-02-12T05:57:51.228Z,2.00
2018-02-12T05:58:51.264Z,2.10
2018-02-12T05:59:51.214Z,2.80
2018-02-12T06:00:51.208Z,4.00
2018-02-12T06:01:51.203Z,4.20
2018-02-12T06:02:51.194Z,3.20
2018-02-12T06:03:51.187Z,2.00
2018-02-12T06:04:51.180Z,2.50
2018-02-12T06:05:51.173Z,1.80
2018-02-12T06:06:51.166Z,1.40
2018-02-12T06:07:51.158Z,1.30
2018-02-12T06:08:51.154Z,1.20
2018-02-12T06:09:51.145Z,1.10
2018-02-12T06:10:51.137Z,1.20
2018-02-12T06:11:51.131Z,1.20
2018-02-12T06:12:51.122Z,1.20
2018-02-12T06:13:51.116Z,0.90
2018-02-12T06:14:51.107Z,0.90
2018-02-12T06:15:51.100Z,0.80
2018-02-12T06:16:51.092Z,1.20
2018-02-12T06:17:51.085Z,0.90
2018-02-12T06:18:51.081Z,0.90
2018-02-12T06:19:51.069Z,0.80
2018-02-12T06:20:51.063Z,0.80
2018-02-12T06:21:51.055Z,1.10
2018-02-12T06:22:51.047Z,1.10
2018-02-12T06:23:51.040Z,1.10
2018-02-12T06:24:51.032Z,1.10
2018-02-12T06:25:51.025Z,1.40
2018-02-12T06:26:51.015Z,1.30
2018-02-12T06:27:51.009Z,1.20
2018-02-12T06:28:51.000Z,1.10
2018-02-12T06:29:50.992Z,1.20
2018-02-12T06:30:50.985Z,1.10
2018-02-12T06:31:50.978Z,0.90
2018-02-12T06:32:50.969Z,1.50
2018-02-12T06:33:50.962Z,1.10
2018-02-12T06:34:50.953Z,1.20
2018-02-12T06:35:50.945Z,1.10
2018-02-12T06:36:50.936Z,1.10
2018-02-12T06:37:50.935Z,1.50
2018-02-12T06:38:50.922Z,2.10
2018-02-12T06:39:50.913Z,1.20
2018-02-12T06:40:50.909Z,1.10
2018-02-12T06:41:50.899Z,1.20
2018-02-12T06:42:50.889Z,1.40
2018-02-12T06:43:50.882Z,1.30
2018-02-12T06:44:50.874Z,1.50
2018-02-12T06:45:50.867Z,1.10
2018-02-12T06:46:50.886Z,1.50
2018-02-12T06:47:50.850Z,1.30
2018-02-12T06:48:50.843Z,1.80
2018-02-12T06:49:50.835Z,1.60
2018-02-12T06:50:50.826Z,1.50
2018-02-12T06:51:50.816Z,1.50
2018-02-12T06:52:50.810Z,1.60
2018-02-12T06:53:50.803Z,2.60
2018-02-12T06:54:50.794Z,3.40
2018-02-12T06:55:50.786Z,1.80
2018-02-12T06:56:50.779Z,1.50
2018-02-12T06:57:50.777Z,2.30
2018-02-12T06:58:50.762Z,1.30
2018-02-12T06:59:50.754Z,1.90
2018-02-12T07:00:50.745Z,1.60
2018-02-12T07:01:50.739Z,2.50
2018-02-12T07:02:50.729Z,1.90
2018-02-12T07:03:50.722Z,1.30
2018-02-12T07:04:50.723Z,1.60
2018-02-12T07:05:50.706Z,1.30
2018-02-12T07:06:50.699Z,2.30
2018-02-12T07:07:50.689Z,1.50
2018-02-12T07:08:50.683Z,2.00
2018-02-12T07:09:50.675Z,2.10
2018-02-12T07:10:50.665Z,1.70
2018-02-12T07:11:50.662Z,1.50
2018-02-12T07:12:50.651Z,1.40
2018-02-12T07:13:50.644Z,1.20
2018-02-12T07:14:50.634Z,3.30
2018-02-12T07:15:50.625Z,4.00
2018-02-12T07:16:50.617Z,2.00
2018-02-12T07:17:50.611Z,4.30
2018-02-12T07:18:50.600Z,2.00
2018-02-12T07:19:50.594Z,5.10
2018-02-12T07:20:50.586Z,2.30
2018-02-12T07:21:50.579Z,1.50
2018-02-12T07:22:50.570Z,1.20
2018-02-12T07:23:50.562Z,1.50
2018-02-12T07:24:50.557Z,1.30
2018-02-12T07:25:50.548Z,1.50
2018-02-12T07:26:50.538Z,2.50
2018-02-12T07:27:50.530Z,2.70
2018-02-12T07:28:50.522Z,2.70
2018-02-12T07:29:50.515Z,2.60
2018-02-12T07:30:50.505Z,2.50
2018-02-12T07:31:50.496Z,2.50
2018-02-12T07:32:50.489Z,1.60
2018-02-12T07:33:50.481Z,1.90
2018-02-12T07:34:50.473Z,2.80
2018-02-12T07:35:50.464Z,2.30
2018-02-12T07:36:50.458Z,2.60
2018-02-12T07:37:50.450Z,2.10
2018-02-12T07:38:50.442Z,2.40
2018-02-12T07:39:50.434Z,3.30
2018-02-12T07:40:50.429Z,8.30
2018-02-12T07:41:50.418Z,4.00
2018-02-12T07:42:50.412Z,2.40
2018-02-12T07:43:50.402Z,1.60
2018-02-12T07:44:50.394Z,1.70
2018-02-12T07:45:50.388Z,1.70
2018-02-12T07:46:50.380Z,1.80
2018-02-12T07:47:50.372Z,1.40
2018-02-12T07:48:50.366Z,3.40
2018-02-12T07:49:50.356Z,4.10
2018-02-12T07:50:50.352Z,5.00
2018-02-12T07:51:50.342Z,3.30
2018-02-12T07:52:50.334Z,2.50
2018-02-12T07:53:50.328Z,2.20
2018-02-12T07:54:50.319Z,2.80
2018-02-12T07:55:50.313Z,2.20
2018-02-12T07:56:50.307Z,2.80
2018-02-12T07:57:50.299Z,1.90
2018-02-12T07:58:50.290Z,2.50
2018-02-12T07:59:50.283Z,2.00
2018-02-12T08:00:50.277Z,2.90
2018-02-12T08:01:50.271Z,2.60
2018-02-12T08:02:50.262Z,3.10
2018-02-12T08:03:50.255Z,3.30
2018-02-12T08:04:50.248Z,2.80
2018-02-12T08:05:50.241Z,3.20
2018-02-12T08:06:50.233Z,2.90
2018-02-12T08:07:50.226Z,2.90
2018-02-12T08:08:50.218Z,2.80
2018-02-12T08:09:50.211Z,2.30
2018-02-12T08:10:50.204Z,1.90
2018-02-12T08:11:50.198Z,1.90
2018-02-12T08:12:50.190Z,2.10
2018-02-12T08:13:50.186Z,1.90
2018-02-12T08:14:50.175Z,1.80
2018-02-12T08:15:50.168Z,2.00
2018-02-12T08:16:50.162Z,1.70
2018-02-12T08:17:50.157Z,1.70
2018-02-12T08:18:50.147Z,2.10
2018-02-12T08:19:50.139Z,2.60
2018-02-12T08:20:50.132Z,1.70
2018-02-12T08:21:50.126Z,1.80
2018-02-12T08:22:50.118Z,1.80
2018-02-12T08:23:50.111Z,2.10
2018-02-12T08:24:50.103Z,2.10
2018-02-12T08:25:50.096Z,1.60
2018-02-12T08:26:50.091Z,1.20
2018-02-12T08:27:50.085Z,1.70
2018-02-12T08:28:50.074Z,1.70
2018-02-12T08:29:50.069Z,1.50
2018-02-12T08:30:50.060Z,1.40
2018-02-12T08:31:50.052Z,1.60
2018-02-12T08:32:50.048Z,2.40
2018-02-12T08:33:50.039Z,2.30
2018-02-12T08:34:50.032Z,2.00
2018-02-12T08:35:50.026Z,1.90
2018-02-12T08:36:50.019Z,1.60
2018-02-12T08:37:50.012Z,1.30
2018-02-12T08:38:50.003Z,2.20
2018-02-12T08:39:50.434Z,1.60
2018-02-12T08:40:49.990Z,1.20
2018-02-12T08:41:49.981Z,1.50
2018-02-12T08:42:49.977Z,1.70
2018-02-12T08:43:49.968Z,1.20
2018-02-12T08:44:50.008Z,1.40
2018-02-12T08:45:49.953Z,1.80
2018-02-12T08:46:49.946Z,1.20
2018-02-12T08:47:49.938Z,1.90
2018-02-12T08:48:49.930Z,1.40
2018-02-12T08:49:49.925Z,2.20
2018-02-12T08:50:49.915Z,1.50
2018-02-12T08:51:49.909Z,1.80
2018-02-12T08:52:49.902Z,1.60
2018-02-12T08:53:49.894Z,1.20
2018-02-12T08:54:49.886Z,1.20
2018-02-12T08:55:49.879Z,1.50
2018-02-12T08:56:49.870Z,1.40
2018-02-12T08:57:49.863Z,1.60
2018-02-12T08:58:49.855Z,2.00
2018-02-12T08:59:49.848Z,1.50
2018-02-12T09:00:49.840Z,1.10
2018-02-12T09:01:49.832Z,2.40
2018-02-12T09:02:49.824Z,3.30
2018-02-12T09:03:49.817Z,1.70
2018-02-12T09:04:49.810Z,1.10
2018-02-12T09:05:49.801Z,1.30
2018-02-12T09:06:49.793Z,1.40
2018-02-12T09:07:49.785Z,1.30
2018-02-12T09:08:49.776Z,1.40
2018-02-12T09:09:49.769Z,1.10
2018-02-12T09:10:49.762Z,1.40
2018-02-12T09:11:49.754Z,1.70
2018-02-12T09:12:49.746Z,2.40
2018-02-12T09:13:49.738Z,1.60
2018-02-12T09:14:49.730Z,1.00
2018-02-12T09:15:49.725Z,1.00
2018-02-12T09:16:49.714Z,1.50
2018-02-12T09:17:49.705Z,1.40
2018-02-12T09:18:49.698Z,1.40
2018-02-12T09:19:49.690Z,1.30
2018-02-12T09:20:49.696Z,1.00
2018-02-12T09:21:49.675Z,1.20
2018-02-12T09:22:49.667Z,1.20
2018-02-12T09:23:49.659Z,1.30
2018-02-12T09:24:49.652Z,0.90
2018-02-12T09:25:49.644Z,1.50
2018-02-12T09:26:49.635Z,2.00
2018-02-12T09:27:49.628Z,1.40
2018-02-12T09:28:49.620Z,1.10
2018-02-12T09:29:49.617Z,1.20
2018-02-12T09:30:49.606Z,1.70
2018-02-12T09:31:49.596Z,1.20
2018-02-12T09:32:49.590Z,1.00
2018-02-12T09:33:49.584Z,1.60
2018-02-12T09:34:49.576Z,1.60
2018-02-12T09:35:49.568Z,1.90
2018-02-12T09:36:49.560Z,1.80
2018-02-12T09:37:49.555Z,1.60
2018-02-12T09:38:49.547Z,1.40
2018-02-12T09:39:49.540Z,1.90
2018-02-12T09:40:49.533Z,2.60
2018-02-12T09:41:49.527Z,1.30
2018-02-12T09:42:49.519Z,1.00
2018-02-12T09:43:49.513Z,0.80
2018-02-12T09:44:49.507Z,1.40
2018-02-12T09:45:49.501Z,1.40
2018-02-12T09:46:49.494Z,1.30
2018-02-12T09:47:49.488Z,1.70
2018-02-12T09:48:49.482Z,1.20
2018-02-12T09:49:49.475Z,1.40
2018-02-12T09:50:49.470Z,1.40
2018-02-12T09:51:49.463Z,1.40
2018-02-12T09:52:49.458Z,1.50
2018-02-12T09:53:49.456Z,1.40
2018-02-12T09:54:49.448Z,1.50
2018-02-12T09:55:49.742Z,1.90
2018-02-12T09:56:49.437Z,1.70
2018-02-12T09:57:49.434Z,1.20
2018-02-12T09:58:49.434Z,1.80
2018-02-12T09:59:49.425Z,1.60
2018-02-12T10:00:49.424Z,1.30
2018-02-12T10:01:49.416Z,1.60
2018-02-12T10:02:49.413Z,1.50
2018-02-12T10:03:49.411Z,1.30
2018-02-12T10:04:49.408Z,2.20
2018-02-12T10:05:49.408Z,1.30
2018-02-12T10:06:49.400Z,2.00
2018-02-12T10:07:49.398Z,1.10
2018-02-12T10:08:49.395Z,1.10
2018-02-12T10:09:49.394Z,1.30
2018-02-12T10:10:49.389Z,1.40
2018-02-12T10:11:49.412Z,1.10
2018-02-12T10:12:49.384Z,1.10
2018-02-12T10:13:49.383Z,1.10
2018-02-12T10:14:49.379Z,1.30
2018-02-12T10:15:49.378Z,1.70
2018-02-12T10:16:49.379Z,2.30
2018-02-12T10:17:49.373Z,1.20
2018-02-12T10:18:49.371Z,0.90
2018-02-12T10:19:49.369Z,1.50
2018-02-12T10:20:49.375Z,1.10
2018-02-12T10:21:49.367Z,1.20
2018-02-12T10:22:49.362Z,1.30
2018-02-12T10:23:49.359Z,1.60
2018-02-12T10:24:49.357Z,1.50
2018-02-12T10:25:49.354Z,1.00
2018-02-12T10:26:49.352Z,1.20
2018-02-12T10:27:49.350Z,1.20
2018-02-12T10:28:49.347Z,1.30
2018-02-12T10:29:49.344Z,0.80
2018-02-12T10:30:49.342Z,1.00
2018-02-12T10:31:49.340Z,0.80
2018-02-12T10:32:49.337Z,1.20
2018-02-12T10:33:49.333Z,1.40
2018-02-12T10:34:49.330Z,1.60
2018-02-12T10:35:49.327Z,1.10
2018-02-12T10:36:49.326Z,1.20
2018-02-12T10:37:49.323Z,1.40
2018-02-12T10:38:49.319Z,1.00
2018-02-12T10:39:49.316Z,0.70
2018-02-12T10:40:49.314Z,1.10
2018-02-12T10:41:49.314Z,1.10
2018-02-12T10:42:49.310Z,0.90
2018-02-12T10:43:49.304Z,0.80
2018-02-12T10:44:49.301Z,0.90
2018-02-12T10:45:49.298Z,1.30
2018-02-12T10:46:49.298Z,1.80
2018-02-12T10:47:49.290Z,2.60
2018-02-12T10:48:49.288Z,2.20
2018-02-12T10:49:49.285Z,1.20
2018-02-12T10:50:49.280Z,1.10
2018-02-12T10:51:49.278Z,1.20
2018-02-12T10:52:49.276Z,2.00
2018-02-12T10:53:49.270Z,1.90
2018-02-12T10:54:49.268Z,2.10
2018-02-12T10:55:49.263Z,1.30
2018-02-12T10:56:49.259Z,1.10
2018-02-12T10:57:49.256Z,0.80
2018-02-12T10:58:49.252Z,0.80
2018-02-12T10:59:49.249Z,1.20
2018-02-12T11:00:49.246Z,1.60
2018-02-12T11:01:49.243Z,1.30
2018-02-12T11:02:49.237Z,1.00
2018-02-12T11:03:49.233Z,2.00
2018-02-12T11:04:49.231Z,2.30
2018-02-12T11:05:49.227Z,2.50
2018-02-12T11:06:49.223Z,2.00
2018-02-12T11:07:49.220Z,3.10
2018-02-12T11:08:49.217Z,3.20
2018-02-12T11:09:49.213Z,2.30
2018-02-12T11:10:49.210Z,1.80
2018-02-12T11:11:49.208Z,2.40
2018-02-12T11:12:49.207Z,3.30
2018-02-12T11:13:49.204Z,1.50
2018-02-12T11:14:49.200Z,1.50
2018-02-12T11:15:49.198Z,1.50
2018-02-12T11:16:49.195Z,1.70
2018-02-12T11:17:49.193Z,2.40
2018-02-12T11:18:49.195Z,1.60
2018-02-12T11:19:49.186Z,1.30
2018-02-12T11:20:49.186Z,1.20
2018-02-12T11:21:49.182Z,1.60
2018-02-12T11:22:49.338Z,1.80
2018-02-12T11:23:49.174Z,1.40
2018-02-12T11:24:49.171Z,1.60
2018-02-12T11:25:49.167Z,1.80
2018-02-12T11:26:49.162Z,1.40
2018-02-12T11:27:49.160Z,1.40
2018-02-12T11:28:49.156Z,1.20
2018-02-12T11:29:49.153Z,1.20
2018-02-12T11:30:49.152Z,1.20
2018-02-12T11:31:49.144Z,1.80
2018-02-12T11:32:49.141Z,1.40
2018-02-12T11:33:49.137Z,1.80
2018-02-12T11:34:49.132Z,1.60
2018-02-12T11:35:49.129Z,1.30
2018-02-12T11:36:49.125Z,1.60
2018-02-12T11:37:49.122Z,2.00
2018-02-12T11:38:49.116Z,1.70
2018-02-12T11:39:49.149Z,1.70
2018-02-12T11:40:49.108Z,1.70
2018-02-12T11:41:49.104Z,1.20
2018-02-12T11:42:49.098Z,1.60
2018-02-12T11:43:49.100Z,1.30
2018-02-12T11:44:49.089Z,1.40
2018-02-12T11:45:49.084Z,1.30
2018-02-12T11:46:49.079Z,2.50
2018-02-12T11:47:49.075Z,1.90
2018-02-12T11:48:49.070Z,1.90
2018-02-12T11:49:49.064Z,2.30
2018-02-12T11:50:49.058Z,1.30
2018-02-12T11:51:49.053Z,1.80
2018-02-12T11:52:49.047Z,1.70
2018-02-12T11:53:49.042Z,2.10
2018-02-12T11:54:49.035Z,1.40
2018-02-12T11:55:49.030Z,1.90
2018-02-12T11:56:49.024Z,2.40
2018-02-12T11:57:49.078Z,1.50
2018-02-12T11:58:49.011Z,1.90
2018-02-12T11:59:49.007Z,1.40
2018-02-12T12:00:49.001Z,2.50
2018-02-12T12:01:48.996Z,1.50
2018-02-12T12:02:48.988Z,1.70
2018-02-12T12:03:48.982Z,1.60
2018-02-12T12:04:48.978Z,1.40
2018-02-12T12:05:48.971Z,1.00
2018-02-12T12:06:48.965Z,1.10
2018-02-12T12:07:48.960Z,0.90
2018-02-12T12:08:48.953Z,1.00
2018-02-12T12:09:48.950Z,1.20
2018-02-12T12:10:48.940Z,1.40
2018-02-12T12:11:48.934Z,0.70
2018-02-12T12:12:48.928Z,0.80
2018-02-12T12:13:48.922Z,1.10
2018-02-12T12:14:48.916Z,1.80
2018-02-12T12:15:48.916Z,1.40
2018-02-12T12:16:48.905Z,1.30
2018-02-12T12:17:48.899Z,9.20
2018-02-12T12:18:48.893Z,2.60
2018-02-12T12:19:48.886Z,1.40
2018-02-12T12:20:48.886Z,2.10
2018-02-12T12:21:48.878Z,1.60
2018-02-12T12:22:48.873Z,1.00
2018-02-12T12:23:48.866Z,1.00
2018-02-12T12:24:48.856Z,0.80
2018-02-12T12:25:48.850Z,0.80
2018-02-12T12:26:48.848Z,0.90
2018-02-12T12:27:48.839Z,0.80
2018-02-12T12:28:48.834Z,1.30
2018-02-12T12:29:48.829Z,3.00
2018-02-12T12:30:48.822Z,0.80
2018-02-12T12:31:48.816Z,0.80
2018-02-12T12:32:48.811Z,0.80
2018-02-12T12:33:48.807Z,1.10
2018-02-12T12:34:48.802Z,0.90
2018-02-12T12:35:48.796Z,0.80
2018-02-12T12:36:48.790Z,0.70
2018-02-12T12:37:48.785Z,0.80
2018-02-12T12:38:48.779Z,0.80
2018-02-12T12:39:48.774Z,0.90
2018-02-12T12:40:48.769Z,1.00
2018-02-12T12:41:48.764Z,1.20
2018-02-12T12:42:48.759Z,1.00
2018-02-12T12:43:48.751Z,1.30
2018-02-12T12:44:48.749Z,0.90
2018-02-12T12:45:48.742Z,0.90
2018-02-12T12:46:48.739Z,0.70
2018-02-12T12:47:48.735Z,0.60
2018-02-12T12:48:48.725Z,0.90
2018-02-12T12:49:48.722Z,1.00
2018-02-12T12:50:48.715Z,0.90
2018-02-12T12:51:48.710Z,1.00
2018-02-12T12:52:48.706Z,1.20
2018-02-12T12:53:48.700Z,1.20
2018-02-12T12:54:48.694Z,1.20
2018-02-12T12:55:48.690Z,1.20
2018-02-12T12:56:48.685Z,1.40
2018-02-12T12:57:48.680Z,1.20
2018-02-12T12:58:48.674Z,0.80
2018-02-12T12:59:48.669Z,0.90
2018-02-12T13:00:48.664Z,0.80
2018-02-12T13:01:48.659Z,1.00
2018-02-12T13:02:48.653Z,1.20
2018-02-12T13:03:48.648Z,1.00
2018-02-12T13:04:48.642Z,1.70
2018-02-12T13:05:48.637Z,1.40
2018-02-12T13:06:48.631Z,1.20
2018-02-12T13:07:48.627Z,1.40
2018-02-12T13:08:48.620Z,0.90
2018-02-12T13:09:48.618Z,0.90
2018-02-12T13:10:48.611Z,1.10
2018-02-12T13:11:48.606Z,1.00
2018-02-12T13:12:48.599Z,1.60
2018-02-12T13:13:48.596Z,0.90
2018-02-12T13:14:48.638Z,1.50
2018-02-12T13:15:48.585Z,1.10
2018-02-12T13:16:48.580Z,1.20
2018-02-12T13:17:48.574Z,1.00
2018-02-12T13:18:48.567Z,1.40
2018-02-12T13:19:48.564Z,2.10